createdAt,value
2023-03-05T00:02:07.039Z,4.43
2023-03-05T00:04:33.959Z,4.40
2023-03-05T00:07:00.700Z,4.33
2023-03-05T00:09:27.504Z,4.31
2023-03-05T00:11:54.233Z,4.45
2023-03-05T00:14:20.972Z,4.29
2023-03-05T00:16:47.819Z,4.35
2023-03-05T00:19:14.703Z,4.29
2023-03-05T00:21:42.554Z,4.22
2023-03-05T00:24:13.605Z,4.27
2023-03-05T00:26:40.864Z,4.21
2023-03-05T00:29:09.196Z,4.04
2023-03-05T00:31:37.053Z,4.05
2023-03-05T00:34:09.925Z,4.17
2023-03-05T00:36:40.471Z,4.17
2023-03-05T00:39:07.406Z,4.15
2023-03-05T00:41:34.152Z,4.15
2023-03-05T00:44:01.066Z,4.13
2023-03-05T00:46:27.846Z,4.17
2023-03-05T00:48:56.276Z,4.19
2023-03-05T00:51:24.451Z,4.09
2023-03-05T00:53:51.186Z,4.14
2023-03-05T00:56:17.961Z,4.11
2023-03-05T00:58:44.707Z,4.02
2023-03-05T01:01:11.756Z,4.10
2023-03-05T01:03:38.546Z,3.97
2023-03-05T01:06:08.991Z,4.00
2023-03-05T01:08:36.541Z,3.99
2023-03-05T01:11:04.314Z,3.96
2023-03-05T01:13:31.142Z,3.91
2023-03-05T01:15:57.945Z,3.97
2023-03-05T01:18:24.808Z,3.94
2023-03-05T01:20:51.631Z,3.87
2023-03-05T01:23:18.949Z,3.87
2023-03-05T01:25:45.830Z,3.75
2023-03-05T01:28:12.592Z,3.82
2023-03-05T01:30:39.387Z,3.75
2023-03-05T01:33:06.095Z,3.80
2023-03-05T01:35:33.144Z,3.69
2023-03-05T01:37:59.857Z,3.67
2023-03-05T01:40:29.975Z,3.46
2023-03-05T01:43:18.996Z,3.51
2023-03-05T01:46:30.987Z,3.51
2023-03-05T01:49:36.153Z,3.41
2023-03-05T01:52:17.746Z,3.33
2023-03-05T01:54:50.999Z,3.28
2023-03-05T01:57:30.608Z,3.29
2023-03-05T02:00:02.664Z,3.24
2023-03-05T02:02:41.049Z,3.13
2023-03-05T02:05:12.659Z,2.94
2023-03-05T02:07:43.093Z,2.80
2023-03-05T02:10:22.235Z,2.86
2023-03-05T02:12:51.065Z,2.97
2023-03-05T02:15:18.335Z,2.70
2023-03-05T02:17:45.760Z,2.61
2023-03-05T02:20:16.608Z,2.66
2023-03-05T02:22:43.478Z,2.64
2023-03-05T02:25:16.851Z,2.48
2023-03-05T02:27:51.747Z,2.54
2023-03-05T02:30:19.257Z,2.29
2023-03-05T02:32:46.475Z,2.39
2023-03-05T02:35:13.965Z,2.40
2023-03-05T02:37:41.340Z,2.43
2023-03-05T02:40:09.523Z,2.42
2023-03-05T02:42:36.649Z,2.31
2023-03-05T02:45:05.239Z,2.17
2023-03-05T02:47:32.210Z,2.06
2023-03-05T02:49:59.144Z,2.13
2023-03-05T02:52:26.950Z,2.11
2023-03-05T02:54:54.247Z,2.06
2023-03-05T02:57:22.901Z,1.95
2023-03-05T02:59:50.214Z,2.09
2023-03-05T03:02:17.442Z,2.09
2023-03-05T03:04:45.135Z,2.07
2023-03-05T03:07:13.421Z,2.07
2023-03-05T03:09:40.628Z,1.93
2023-03-05T03:12:07.607Z,1.94
2023-03-05T03:14:39.304Z,1.78
2023-03-05T03:17:11.117Z,1.89
2023-03-05T03:19:38.898Z,1.77
2023-03-05T03:22:07.032Z,1.77
2023-03-05T03:24:35.481Z,1.85
2023-03-05T03:27:02.564Z,1.78
2023-03-05T03:29:29.486Z,1.73
2023-03-05T03:31:56.608Z,1.82
2023-03-05T03:34:24.067Z,1.79
2023-03-05T03:36:52.956Z,1.59
2023-03-05T03:39:22.151Z,1.73
2023-03-05T03:41:51.726Z,1.48
2023-03-05T03:44:20.323Z,1.61
2023-03-05T03:46:48.248Z,1.48
2023-03-05T03:49:21.086Z,1.53
2023-03-05T03:51:49.766Z,1.50
2023-03-05T03:54:18.429Z,1.38
2023-03-05T03:56:45.452Z,1.23
2023-03-05T03:59:13.169Z,1.31
2023-03-05T04:01:40.254Z,1.28
2023-03-05T04:04:07.786Z,1.26
2023-03-05T04:06:34.761Z,1.08
2023-03-05T04:09:01.561Z,1.01
2023-03-05T04:11:28.351Z,1.12
2023-03-05T04:13:55.054Z,1.04
2023-03-05T04:16:21.968Z,1.01
2023-03-05T04:18:48.824Z,1.04
2023-03-05T04:21:15.726Z,0.70
2023-03-05T04:23:42.851Z,0.89
2023-03-05T04:26:09.658Z,0.91
2023-03-05T04:28:36.497Z,0.98
2023-03-05T04:31:03.871Z,1.10
2023-03-05T04:33:30.965Z,1.17
2023-03-05T04:35:57.813Z,1.12
2023-03-05T04:38:24.631Z,1.11
2023-03-05T04:40:52.124Z,1.35
2023-03-05T04:43:18.917Z,1.34
2023-03-05T04:45:45.667Z,1.38
2023-03-05T04:48:12.812Z,1.33
2023-03-05T04:50:40.281Z,1.31
2023-03-05T04:53:07.096Z,1.01
2023-03-05T04:55:33.990Z,1.13
2023-03-05T04:58:00.809Z,1.26
2023-03-05T05:00:27.691Z,1.34
2023-03-05T05:02:54.571Z,1.36
2023-03-05T05:05:24.083Z,1.29
2023-03-05T05:07:53.745Z,1.36
2023-03-05T05:10:20.753Z,1.25
2023-03-05T05:12:47.529Z,1.40
2023-03-05T05:15:14.734Z,1.32
2023-03-05T05:17:41.538Z,1.32
2023-03-05T05:20:11.563Z,1.36
2023-03-05T05:22:38.236Z,1.39
2023-03-05T05:25:05.462Z,1.41
2023-03-05T05:27:32.373Z,1.45
2023-03-05T05:29:59.280Z,1.41
2023-03-05T05:32:26.488Z,1.38
2023-03-05T05:34:57.909Z,1.40
2023-03-05T05:37:26.257Z,1.52
2023-03-05T05:39:53.747Z,1.53
2023-03-05T05:42:23.628Z,1.55
2023-03-05T05:44:50.725Z,1.61
2023-03-05T05:47:18.266Z,1.59
2023-03-05T05:49:45.068Z,1.61
2023-03-05T05:52:12.217Z,1.71
2023-03-05T05:54:39.516Z,1.54
2023-03-05T05:57:06.776Z,1.59
2023-03-05T05:59:33.732Z,1.79
2023-03-05T06:02:00.568Z,1.80
2023-03-05T06:04:27.422Z,1.84
2023-03-05T06:06:54.457Z,1.89
2023-03-05T06:09:21.232Z,1.93
2023-03-05T06:11:47.975Z,1.86
2023-03-05T06:14:14.787Z,1.95
2023-03-05T06:16:41.774Z,1.85
2023-03-05T06:19:17.413Z,1.94
2023-03-05T06:21:44.574Z,1.81
2023-03-05T06:24:11.679Z,1.97
2023-03-05T06:26:39.178Z,1.84
2023-03-05T06:29:05.942Z,1.99
2023-03-05T06:31:32.929Z,1.86
2023-03-05T06:34:04.060Z,2.07
2023-03-05T06:36:31.554Z,1.99
2023-03-05T06:38:58.851Z,2.03
2023-03-05T06:41:28.179Z,2.13
2023-03-05T06:43:55.734Z,2.16
2023-03-05T06:46:31.508Z,2.17
2023-03-05T06:49:00.708Z,2.17
2023-03-05T06:51:29.287Z,2.12
2023-03-05T06:53:59.481Z,2.11
2023-03-05T06:56:26.342Z,2.16
2023-03-05T06:58:53.205Z,2.09
2023-03-05T07:01:21.218Z,2.28
2023-03-05T07:03:54.850Z,2.31
2023-03-05T07:06:22.492Z,2.22
2023-03-05T07:08:49.653Z,2.27
2023-03-05T07:11:21.085Z,2.35
2023-03-05T07:13:49.036Z,2.59
2023-03-05T07:16:24.623Z,2.57
2023-03-05T07:18:52.296Z,2.89
2023-03-05T07:21:22.640Z,3.00
2023-03-05T07:23:50.065Z,3.04
2023-03-05T07:26:16.939Z,3.08
2023-03-05T07:28:43.846Z,3.30
2023-03-05T07:31:16.462Z,3.26
2023-03-05T07:33:43.592Z,3.46
2023-03-05T07:36:11.759Z,3.57
2023-03-05T07:38:38.750Z,3.75
2023-03-05T07:41:08.723Z,3.78
2023-03-05T07:43:35.541Z,3.81
2023-03-05T07:46:11.587Z,3.74
2023-03-05T07:48:38.951Z,3.91
2023-03-05T07:51:09.396Z,3.89
2023-03-05T07:53:36.438Z,3.98
2023-03-05T07:56:03.354Z,4.09
2023-03-05T07:58:30.069Z,4.24
2023-03-05T08:00:56.772Z,4.28
2023-03-05T08:03:23.527Z,4.21
2023-03-05T08:05:50.371Z,4.20
2023-03-05T08:08:17.134Z,4.16
2023-03-05T08:10:44.497Z,4.26
2023-03-05T08:13:11.283Z,4.38
2023-03-05T08:15:38.936Z,4.53
2023-03-05T08:18:05.848Z,4.48
2023-03-05T08:20:36.456Z,4.45
2023-03-05T08:23:04.016Z,4.35
2023-03-05T08:25:31.638Z,4.44
2023-03-05T08:27:58.712Z,4.45
2023-03-05T08:30:27.486Z,4.31
2023-03-05T08:32:55.606Z,4.40
2023-03-05T08:35:23.376Z,4.43
2023-03-05T08:37:50.495Z,4.51
2023-03-05T08:40:20.347Z,4.49
2023-03-05T08:42:47.151Z,4.50
2023-03-05T08:45:13.988Z,4.61
2023-03-05T08:47:40.840Z,4.61
2023-03-05T08:50:08.650Z,4.66
2023-03-05T08:52:35.457Z,4.61
2023-03-05T08:55:02.297Z,4.65
2023-03-05T08:57:29.156Z,4.62
2023-03-05T08:59:55.978Z,4.68
2023-03-05T09:02:23.120Z,4.76
2023-03-05T09:04:50.356Z,4.76
2023-03-05T09:07:17.178Z,4.68
2023-03-05T09:09:43.947Z,4.76
2023-03-05T09:12:12.330Z,4.88
2023-03-05T09:14:40.702Z,4.97
2023-03-05T09:17:07.953Z,4.96
2023-03-05T09:19:35.172Z,5.03
2023-03-05T09:22:01.998Z,5.10
2023-03-05T09:24:28.740Z,5.03
2023-03-05T09:26:59.569Z,5.11
2023-03-05T09:29:27.314Z,5.04
2023-03-05T09:31:54.388Z,4.95
2023-03-05T09:34:21.999Z,5.05
2023-03-05T09:36:49.013Z,5.15
2023-03-05T09:39:17.088Z,5.16
2023-03-05T09:42:09.879Z,5.12
2023-03-05T09:44:43.059Z,5.26
2023-03-05T09:47:16.012Z,5.24
2023-03-05T09:50:07.446Z,5.29
2023-03-05T09:52:41.284Z,5.18
2023-03-05T09:55:14.799Z,5.30
2023-03-05T09:57:45.782Z,5.37
2023-03-05T10:00:23.279Z,5.31
2023-03-05T10:02:58.433Z,5.29
2023-03-05T10:05:45.924Z,4.96
2023-03-05T10:08:16.895Z,5.35
2023-03-05T10:10:49.966Z,5.33
2023-03-05T10:13:38.463Z,5.44
2023-03-05T10:16:30.220Z,5.47
2023-03-05T10:19:06.758Z,5.58
2023-03-05T10:21:44.704Z,5.54
2023-03-05T10:24:44.077Z,5.57
2023-03-05T10:27:44.385Z,5.60
2023-03-05T10:30:54.827Z,5.68
2023-03-05T10:33:31.651Z,5.70
2023-03-05T10:36:21.265Z,5.76
2023-03-05T10:39:37.242Z,5.75
2023-03-05T10:42:10.000Z,5.87
2023-03-05T10:44:40.371Z,5.87
2023-03-05T10:47:22.179Z,5.89
2023-03-05T10:49:52.768Z,5.90
2023-03-05T10:52:27.058Z,6.00
2023-03-05T10:54:54.266Z,5.97
2023-03-05T10:57:30.704Z,5.86
2023-03-05T11:00:06.652Z,5.94
2023-03-05T11:02:34.408Z,5.96
2023-03-05T11:05:01.811Z,5.93
2023-03-05T11:07:32.688Z,6.03
2023-03-05T11:10:18.249Z,5.91
2023-03-05T11:12:45.744Z,6.18
2023-03-05T11:15:12.453Z,6.35
2023-03-05T11:17:44.977Z,6.76
2023-03-05T11:20:31.483Z,7.11
2023-03-05T11:23:04.438Z,7.59
2023-03-05T11:25:34.284Z,7.86
2023-03-05T11:28:02.833Z,7.93
2023-03-05T11:30:35.878Z,8.02
2023-03-05T11:33:22.563Z,8.48
2023-03-05T11:35:52.023Z,8.59
2023-03-05T11:38:25.032Z,9.50
2023-03-05T11:40:55.969Z,11.03
2023-03-05T11:43:25.430Z,11.44
2023-03-05T11:45:57.453Z,13.10
2023-03-05T11:48:30.624Z,14.13
2023-03-05T11:51:02.740Z,14.65
2023-03-05T11:53:36.882Z,14.78
2023-03-05T11:56:12.624Z,14.70
2023-03-05T11:58:43.649Z,14.29
2023-03-05T12:01:17.157Z,13.78
2023-03-05T12:03:44.249Z,13.32
2023-03-05T12:06:26.050Z,12.50
2023-03-05T12:08:57.620Z,12.08
2023-03-05T12:11:33.065Z,11.31
2023-03-05T12:14:35.616Z,10.80
2023-03-05T12:17:13.505Z,10.31
2023-03-05T12:19:48.202Z,9.84
2023-03-05T12:22:23.104Z,9.62
2023-03-05T12:24:51.369Z,9.29
2023-03-05T12:27:37.079Z,9.13
2023-03-05T12:30:05.284Z,9.09
2023-03-05T12:32:32.265Z,8.90
2023-03-05T12:35:00.435Z,8.82
2023-03-05T12:37:27.325Z,8.99
2023-03-05T12:40:19.655Z,8.97
2023-03-05T12:42:46.904Z,8.89
2023-03-05T12:45:16.169Z,8.70
2023-03-05T12:47:47.563Z,8.76
2023-03-05T12:50:27.022Z,8.72
2023-03-05T12:53:10.268Z,8.48
2023-03-05T12:55:58.631Z,8.41
2023-03-05T12:58:40.071Z,8.38
2023-03-05T13:01:44.595Z,8.43
2023-03-05T13:04:22.556Z,8.44
2023-03-05T13:07:03.009Z,8.52
2023-03-05T13:09:33.624Z,8.70
2023-03-05T13:12:02.998Z,8.82
2023-03-05T13:14:57.091Z,8.79
2023-03-05T13:17:44.506Z,8.57
2023-03-05T13:20:37.767Z,8.37
2023-03-05T13:23:23.498Z,8.04
2023-03-05T13:26:00.880Z,7.87
2023-03-05T13:28:28.294Z,7.97
2023-03-05T13:30:59.398Z,7.69
2023-03-05T13:33:30.053Z,7.93
2023-03-05T13:35:57.100Z,7.79
2023-03-05T13:38:40.435Z,7.73
2023-03-05T13:41:27.961Z,7.51
2023-03-05T13:44:00.895Z,7.52
2023-03-05T13:46:38.779Z,7.57
2023-03-05T13:49:25.372Z,7.64
2023-03-05T13:51:54.619Z,7.59
2023-03-05T13:54:23.159Z,7.49
2023-03-05T13:56:58.923Z,7.59
2023-03-05T13:59:31.443Z,7.45
2023-03-05T14:02:00.914Z,7.31
2023-03-05T14:04:30.422Z,7.28
2023-03-05T14:07:04.682Z,7.17
2023-03-05T14:09:46.751Z,7.14
2023-03-05T14:12:32.399Z,7.18
2023-03-05T14:14:59.883Z,7.17
2023-03-05T14:17:45.189Z,7.22
2023-03-05T14:20:23.951Z,7.00
2023-03-05T14:22:53.557Z,7.08
2023-03-05T14:25:39.627Z,6.87
2023-03-05T14:28:16.832Z,6.86
2023-03-05T14:30:47.591Z,6.94
2023-03-05T14:33:15.400Z,6.86
2023-03-05T14:35:49.100Z,6.77
2023-03-05T14:38:23.837Z,6.78
2023-03-05T14:40:50.935Z,6.77
2023-03-05T14:43:17.662Z,6.55
2023-03-05T14:45:44.844Z,6.71
2023-03-05T14:48:14.429Z,6.70
2023-03-05T14:50:57.046Z,6.75
2023-03-05T14:53:33.177Z,6.71
2023-03-05T14:56:00.009Z,6.64
2023-03-05T14:58:33.566Z,6.65
2023-03-05T15:01:00.516Z,6.75
2023-03-05T15:03:28.141Z,6.70
2023-03-05T15:05:57.428Z,6.76
2023-03-05T15:08:29.938Z,6.73
2023-03-05T15:10:57.441Z,6.70
2023-03-05T15:13:24.278Z,6.78
2023-03-05T15:15:52.450Z,6.83
2023-03-05T15:18:21.340Z,6.90
2023-03-05T15:20:48.951Z,6.82
2023-03-05T15:23:15.979Z,6.75
2023-03-05T15:25:42.959Z,6.78
2023-03-05T15:28:10.033Z,6.85
2023-03-05T15:30:43.341Z,6.75
2023-03-05T15:33:13.870Z,6.76
2023-03-05T15:35:41.223Z,6.63
2023-03-05T15:38:08.760Z,6.60
2023-03-05T15:40:35.499Z,6.70
2023-03-05T15:43:02.286Z,6.58
2023-03-05T15:45:31.473Z,6.48
2023-03-05T15:47:58.926Z,6.35
2023-03-05T15:50:25.873Z,6.39
2023-03-05T15:52:52.708Z,6.43
2023-03-05T15:55:19.809Z,6.33
2023-03-05T15:57:52.170Z,6.50
2023-03-05T16:00:25.795Z,6.37
2023-03-05T16:02:53.217Z,6.46
2023-03-05T16:05:19.957Z,6.42
2023-03-05T16:07:51.177Z,6.33
2023-03-05T16:10:22.687Z,6.30
2023-03-05T16:12:52.443Z,6.25
2023-03-05T16:15:21.133Z,6.37
2023-03-05T16:17:52.224Z,6.18
2023-03-05T16:20:20.509Z,6.22
2023-03-05T16:22:47.582Z,6.07
2023-03-05T16:25:14.501Z,6.10
2023-03-05T16:27:41.237Z,6.10
2023-03-05T16:30:09.925Z,5.97
2023-03-05T16:32:38.399Z,5.99
2023-03-05T16:35:05.903Z,6.12
2023-03-05T16:37:32.780Z,6.08
2023-03-05T16:39:59.635Z,6.08
2023-03-05T16:42:26.475Z,6.02
2023-03-05T16:44:53.287Z,5.85
2023-03-05T16:47:20.080Z,5.91
2023-03-05T16:49:46.815Z,5.87
2023-03-05T16:52:19.069Z,5.90
2023-03-05T16:54:47.109Z,5.74
2023-03-05T16:57:14.403Z,5.65
2023-03-05T16:59:41.600Z,5.73
2023-03-05T17:02:08.382Z,5.71
2023-03-05T17:04:35.245Z,5.56
2023-03-05T17:07:04.158Z,5.69
2023-03-05T17:09:31.102Z,5.69
2023-03-05T17:11:57.939Z,5.69
2023-03-05T17:14:25.259Z,5.63
2023-03-05T17:16:52.198Z,5.56
2023-03-05T17:19:19.488Z,5.52
2023-03-05T17:21:46.314Z,5.48
2023-03-05T17:24:13.119Z,5.48
2023-03-05T17:26:39.866Z,5.47
2023-03-05T17:29:07.431Z,5.44
2023-03-05T17:31:34.690Z,5.41
2023-03-05T17:34:01.638Z,5.41
2023-03-05T17:36:28.377Z,5.25
2023-03-05T17:38:55.213Z,5.28
2023-03-05T17:41:22.134Z,5.44
2023-03-05T17:43:49.634Z,5.38
2023-03-05T17:46:16.890Z,5.37
2023-03-05T17:48:43.937Z,5.37
2023-03-05T17:51:13.079Z,5.37
2023-03-05T17:53:40.471Z,5.36
2023-03-05T17:56:12.494Z,5.33
2023-03-05T17:58:40.059Z,5.25
2023-03-05T18:01:07.895Z,5.31
2023-03-05T18:03:35.890Z,5.35
2023-03-05T18:06:03.798Z,5.25
2023-03-05T18:08:30.599Z,5.38
2023-03-05T18:10:57.399Z,5.26
2023-03-05T18:13:24.229Z,5.35
2023-03-05T18:15:50.996Z,5.33
2023-03-05T18:18:18.477Z,5.23
2023-03-05T18:20:45.605Z,5.33
2023-03-05T18:23:12.877Z,5.21
2023-03-05T18:25:40.277Z,5.20
2023-03-05T18:28:09.775Z,5.21
2023-03-05T18:30:37.435Z,5.31
2023-03-05T18:33:05.055Z,5.27
2023-03-05T18:35:33.563Z,5.23
2023-03-05T18:38:00.887Z,5.16
2023-03-05T18:40:30.626Z,5.28
2023-03-05T18:43:00.024Z,5.28
2023-03-05T18:45:26.901Z,5.19
2023-03-05T18:47:54.483Z,5.24
2023-03-05T18:50:23.745Z,5.12
2023-03-05T18:52:50.910Z,5.13
2023-03-05T18:55:24.205Z,5.25
2023-03-05T18:57:51.268Z,5.25
2023-03-05T19:00:24.215Z,5.18
2023-03-05T19:02:51.465Z,5.29
2023-03-05T19:05:18.559Z,5.25
2023-03-05T19:07:46.319Z,5.33
2023-03-05T19:10:15.338Z,5.30
2023-03-05T19:13:39.937Z,5.29
2023-03-05T19:16:12.991Z,5.26
2023-03-05T19:19:20.479Z,5.25
2023-03-05T19:21:49.684Z,5.24
2023-03-05T19:24:16.821Z,5.23
2023-03-05T19:26:44.122Z,5.23
2023-03-05T19:29:10.947Z,5.23
2023-03-05T19:31:38.303Z,5.06
2023-03-05T19:34:05.115Z,5.14
2023-03-05T19:36:34.382Z,5.13
2023-03-05T19:39:04.302Z,5.20
2023-03-05T19:41:31.120Z,5.04
2023-03-05T19:43:58.033Z,5.22
2023-03-05T19:46:24.849Z,5.18
2023-03-05T19:48:51.789Z,5.10
2023-03-05T19:51:21.601Z,5.10
2023-03-05T19:53:49.178Z,5.03
2023-03-05T19:56:17.423Z,5.11
2023-03-05T19:58:45.631Z,5.08
2023-03-05T20:01:12.579Z,5.08
2023-03-05T20:03:40.017Z,5.05
2023-03-05T20:06:07.611Z,5.09
2023-03-05T20:08:34.726Z,5.05
2023-03-05T20:11:02.270Z,5.04
2023-03-05T20:13:29.322Z,4.76
2023-03-05T20:15:56.120Z,4.90
2023-03-05T20:18:23.028Z,4.91
2023-03-05T20:21:02.857Z,4.89
2023-03-05T20:23:29.608Z,4.88
2023-03-05T20:25:56.897Z,4.81
2023-03-05T20:28:25.918Z,4.85
2023-03-05T20:30:57.307Z,4.79
2023-03-05T20:33:25.013Z,4.65
2023-03-05T20:35:53.476Z,4.72
2023-03-05T20:38:24.950Z,4.71
2023-03-05T20:40:54.491Z,4.57
2023-03-05T20:43:23.170Z,4.66
2023-03-05T20:45:50.846Z,4.63
2023-03-05T20:48:17.620Z,4.64
2023-03-05T20:50:46.721Z,4.61
2023-03-05T20:53:14.384Z,4.58
2023-03-05T20:55:42.174Z,4.53
2023-03-05T20:58:09.560Z,4.41
2023-03-05T21:00:37.489Z,4.51
2023-03-05T21:03:05.006Z,4.49
2023-03-05T21:05:33.048Z,4.41
2023-03-05T21:08:01.145Z,4.47
2023-03-05T21:10:28.207Z,4.30
2023-03-05T21:12:55.197Z,4.42
2023-03-05T21:15:24.622Z,4.37
2023-03-05T21:17:52.096Z,4.36
2023-03-05T21:20:22.072Z,4.35
2023-03-05T21:22:48.799Z,4.24
2023-03-05T21:25:21.236Z,4.30
2023-03-05T21:27:48.637Z,4.26
2023-03-05T21:30:17.137Z,4.25
2023-03-05T21:32:44.666Z,4.10
2023-03-05T21:35:22.441Z,4.13
2023-03-05T21:37:49.257Z,4.21
2023-03-05T21:40:18.952Z,4.11
2023-03-05T21:42:46.398Z,4.18
2023-03-05T21:45:15.933Z,4.16
2023-03-05T21:47:43.005Z,4.17
2023-03-05T21:50:12.503Z,4.07
2023-03-05T21:52:39.671Z,4.07
2023-03-05T21:55:07.107Z,4.15
2023-03-05T21:57:33.887Z,4.03
2023-03-05T22:00:00.736Z,4.19
2023-03-05T22:02:27.682Z,4.18
2023-03-05T22:04:54.405Z,4.22
2023-03-05T22:07:21.219Z,4.21
2023-03-05T22:09:48.002Z,4.22
2023-03-05T22:13:10.832Z,4.12
2023-03-05T22:15:52.225Z,4.25
2023-03-05T22:18:38.045Z,4.28
2023-03-05T22:21:05.240Z,4.29
2023-03-05T22:23:36.723Z,4.19
2023-03-05T22:26:07.983Z,4.20
2023-03-05T22:28:36.233Z,4.33
2023-03-05T22:31:03.216Z,4.33
2023-03-05T22:33:31.357Z,4.22
2023-03-05T22:35:58.540Z,4.35
2023-03-05T22:38:25.616Z,4.34
2023-03-05T22:40:52.880Z,4.29
2023-03-05T22:43:20.267Z,4.29
2023-03-05T22:45:47.049Z,4.16
2023-03-05T22:48:14.089Z,4.27
2023-03-05T22:50:43.968Z,4.25
2023-03-05T22:53:12.125Z,4.36
2023-03-05T22:55:41.443Z,4.27
2023-03-05T22:58:08.820Z,4.27
2023-03-05T23:00:35.767Z,4.11
2023-03-05T23:03:02.923Z,4.22
2023-03-05T23:05:29.742Z,4.19
2023-03-05T23:07:56.489Z,4.14
2023-03-05T23:10:27.225Z,4.01
2023-03-05T23:12:56.749Z,4.00
2023-03-05T23:15:32.681Z,3.92
2023-03-05T23:18:00.362Z,3.93
2023-03-05T23:20:30.450Z,3.92
2023-03-05T23:22:58.008Z,4.07
2023-03-05T23:25:27.752Z,4.04
2023-03-05T23:27:55.344Z,4.04
2023-03-05T23:30:23.979Z,3.94
2023-03-05T23:32:59.295Z,4.05
2023-03-05T23:35:56.740Z,4.00
2023-03-05T23:38:25.183Z,3.97
2023-03-05T23:40:54.156Z,3.94
2023-03-05T23:43:24.594Z,3.93
2023-03-05T23:45:55.068Z,3.91
2023-03-05T23:48:24.066Z,3.84
2023-03-05T23:50:51.308Z,3.93
2023-03-05T23:53:21.257Z,3.98
2023-03-05T23:55:48.691Z,3.94
2023-03-05T23:58:15.648Z,3.93
